createdAt,value
2022-12-11T00:01:12.365Z,97434.16
2022-12-11T00:03:40.807Z,97434.34
2022-12-11T00:06:11.896Z,97434.34
2022-12-11T00:08:41.097Z,97444.09
2022-12-11T00:11:10.762Z,97441.25
2022-12-11T00:13:40.085Z,97437.22
2022-12-11T00:16:09.274Z,97435.19
2022-12-11T00:18:37.624Z,97426.81
2022-12-11T00:21:07.909Z,97424.56
2022-12-11T00:23:39.158Z,97428.44
2022-12-11T00:26:09.065Z,97429.66
2022-12-11T00:28:37.726Z,97421.91
2022-12-11T00:31:07.156Z,97425.78
2022-12-11T00:33:35.459Z,97430.47
2022-12-11T00:36:03.973Z,97418.66
2022-12-11T00:38:32.376Z,97423.53
2022-12-11T00:41:02.056Z,97421.72
2022-12-11T00:43:30.533Z,97415.19
2022-12-11T00:46:01.868Z,97421.72
2022-12-11T00:48:30.029Z,97407.69
2022-12-11T00:50:58.114Z,97410.91
2022-12-11T00:53:26.725Z,97413.38
2022-12-11T00:55:54.801Z,97412.94
2022-12-11T00:58:24.609Z,97411.72
2022-12-11T01:00:53.679Z,97413.97
2022-12-11T01:03:21.633Z,97420.03
2022-12-11T01:05:54.574Z,97422.06
2022-12-11T01:08:22.988Z,97433.88
2022-12-11T01:10:50.024Z,97433.44
2022-12-11T01:13:18.614Z,97448.28
2022-12-11T01:15:50.919Z,97445.44
2022-12-11T01:18:19.159Z,97458.25
2022-12-11T01:20:47.305Z,97457.84
2022-12-11T01:23:15.346Z,97452.34
2022-12-11T01:25:47.156Z,97456.41
2022-12-11T01:28:15.255Z,97455.78
2022-12-11T01:30:44.397Z,97455.38
2022-12-11T01:33:17.348Z,97462.31
2022-12-11T01:35:45.225Z,97457.84
2022-12-11T01:38:13.120Z,97462.50
2022-12-11T01:40:54.368Z,97465.53
2022-12-11T01:43:22.261Z,97455.16
2022-12-11T01:45:50.693Z,97452.50
2022-12-11T01:48:23.650Z,97462.84
2022-12-11T01:50:55.507Z,97453.28
2022-12-11T01:53:31.515Z,97459.78
2022-12-11T01:56:00.158Z,97449.22
2022-12-11T01:58:33.487Z,97466.31
2022-12-11T02:01:04.435Z,97460.84
2022-12-11T02:03:33.901Z,97463.09
2022-12-11T02:06:02.531Z,97463.13
2022-12-11T02:08:31.018Z,97469.88
2022-12-11T02:11:07.984Z,97466.59
2022-12-11T02:13:45.974Z,97464.13
2022-12-11T02:16:20.502Z,97472.47
2022-12-11T02:18:57.306Z,97470.41
2022-12-11T02:21:28.023Z,97470.41
2022-12-11T02:24:29.014Z,97473.47
2022-12-11T02:27:27.604Z,97476.16
2022-12-11T02:30:03.415Z,97471.28
2022-12-11T02:32:38.551Z,97471.09
2022-12-11T02:35:16.135Z,97479.25
2022-12-11T02:37:48.250Z,97469.28
2022-12-11T02:40:21.314Z,97471.56
2022-12-11T02:42:51.225Z,97464.81
2022-12-11T02:45:22.193Z,97455.06
2022-12-11T02:47:51.718Z,97452.41
2022-12-11T02:50:23.922Z,97453.47
2022-12-11T02:52:57.194Z,97460.78
2022-12-11T02:55:28.368Z,97460.56
2022-12-11T02:58:04.779Z,97456.09
2022-12-11T03:00:34.846Z,97461.59
2022-12-11T03:03:03.595Z,97461.59
2022-12-11T03:05:32.577Z,97458.13
2022-12-11T03:08:00.990Z,97464.22
2022-12-11T03:10:28.962Z,97466.69
2022-12-11T03:12:58.949Z,97460.38
2022-12-11T03:15:36.671Z,97459.97
2022-12-11T03:18:11.091Z,97457.53
2022-12-11T03:20:42.636Z,97448.16
2022-12-11T03:23:19.706Z,97451.03
2022-12-11T03:25:55.099Z,97453.88
2022-12-11T03:28:30.522Z,97459.16
2022-12-11T03:31:05.776Z,97462.19
2022-12-11T03:33:37.789Z,97457.13
2022-12-11T03:36:10.256Z,97457.50
2022-12-11T03:38:42.764Z,97463.59
2022-12-11T03:41:13.356Z,97457.72
2022-12-11T03:43:42.718Z,97460.97
2022-12-11T03:46:15.195Z,97455.69
2022-12-11T03:48:46.707Z,97454.88
2022-12-11T03:51:15.984Z,97453.84
2022-12-11T03:53:45.526Z,97452.03
2022-12-11T03:56:17.321Z,97450.19
2022-12-11T03:58:45.390Z,97456.69
2022-12-11T04:01:14.735Z,97454.47
2022-12-11T04:03:42.859Z,97444.91
2022-12-11T04:06:11.154Z,97441.03
2022-12-11T04:08:39.280Z,97444.47
2022-12-11T04:11:24.743Z,97436.53
2022-12-11T04:14:12.619Z,97437.38
2022-12-11T04:16:41.493Z,97433.69
2022-12-11T04:19:28.170Z,97433.28
2022-12-11T04:22:28.367Z,97431.66
2022-12-11T04:24:56.513Z,97438.38
2022-12-11T04:27:42.218Z,97441.22
2022-12-11T04:30:15.569Z,97445.47
2022-12-11T04:32:46.004Z,97430.81
2022-12-11T04:35:14.794Z,97431.22
2022-12-11T04:37:43.391Z,97434.50
2022-12-11T04:40:15.891Z,97428.56
2022-12-11T04:42:44.145Z,97429.19
2022-12-11T04:45:13.378Z,97428.38
2022-12-11T04:47:42.355Z,97425.75
2022-12-11T04:50:13.269Z,97425.31
2022-12-11T04:52:41.467Z,97418.59
2022-12-11T04:55:11.769Z,97424.69
2022-12-11T04:57:40.681Z,97420.84
2022-12-11T05:00:12.726Z,97416.72
2022-12-11T05:02:42.204Z,97419.16
2022-12-11T05:05:13.268Z,97419.97
2022-12-11T05:07:42.163Z,97425.50
2022-12-11T05:10:13.871Z,97426.34
2022-12-11T05:12:41.789Z,97423.91
2022-12-11T05:15:10.620Z,97426.72
2022-12-11T05:17:39.407Z,97422.25
2022-12-11T05:20:08.541Z,97425.53
2022-12-11T05:22:40.866Z,97425.53
2022-12-11T05:25:09.926Z,97425.69
2022-12-11T05:27:37.984Z,97422.84
2022-12-11T05:30:07.226Z,97431.16
2022-12-11T05:32:35.202Z,97435.66
2022-12-11T05:35:03.913Z,97439.09
2022-12-11T05:37:34.259Z,97435.66
2022-12-11T05:40:06.292Z,97436.47
2022-12-11T05:42:34.305Z,97433.81
2022-12-11T05:45:02.423Z,97429.13
2022-12-11T05:47:31.693Z,97433.34
2022-12-11T05:50:01.203Z,97427.44
2022-12-11T05:52:29.643Z,97422.56
2022-12-11T05:54:57.604Z,97424.56
2022-12-11T05:57:27.456Z,97418.03
2022-12-11T05:59:55.427Z,97406.66
2022-12-11T06:02:23.753Z,97403.19
2022-12-11T06:04:52.657Z,97407.28
2022-12-11T06:07:21.010Z,97401.56
2022-12-11T06:09:48.974Z,97406.66
2022-12-11T06:12:17.410Z,97404.22
2022-12-11T06:14:46.683Z,97399.94
2022-12-11T06:17:14.571Z,97393.63
2022-12-11T06:19:42.940Z,97394.06
2022-12-11T06:22:11.371Z,97391.03
2022-12-11T06:24:39.638Z,97399.16
2022-12-11T06:27:07.917Z,97388.78
2022-12-11T06:29:35.907Z,97388.97
2022-12-11T06:32:05.717Z,97401.78
2022-12-11T06:34:34.076Z,97401.41
2022-12-11T06:37:02.549Z,97395.50
2022-12-11T06:39:31.526Z,97388.81
2022-12-11T06:41:59.528Z,97394.72
2022-12-11T06:44:27.569Z,97394.50
2022-12-11T06:46:55.710Z,97390.03
2022-12-11T06:49:25.726Z,97392.88
2022-12-11T06:51:53.660Z,97401.44
2022-12-11T06:54:21.988Z,97400.22
2022-12-11T06:56:50.516Z,97400.03
2022-12-11T06:59:19.038Z,97406.91
2022-12-11T07:01:49.847Z,97405.06
2022-12-11T07:04:18.133Z,97393.88
2022-12-11T07:06:49.250Z,97403.41
2022-12-11T07:09:17.915Z,97404.22
2022-12-11T07:11:46.460Z,97411.94
2022-12-11T07:14:14.837Z,97415.22
2022-12-11T07:16:43.205Z,97417.22
2022-12-11T07:19:11.147Z,97412.16
2022-12-11T07:21:39.670Z,97417.44
2022-12-11T07:24:10.428Z,97427.19
2022-12-11T07:26:38.493Z,97420.88
2022-12-11T07:29:06.474Z,97418.25
2022-12-11T07:31:34.504Z,97426.41
2022-12-11T07:34:04.841Z,97425.00
2022-12-11T07:36:33.675Z,97423.50
2022-12-11T07:39:02.937Z,97421.47
2022-12-11T07:41:32.279Z,97417.59
2022-12-11T07:44:01.413Z,97414.56
2022-12-11T07:46:31.635Z,97414.59
2022-12-11T07:49:00.947Z,97416.66
2022-12-11T07:51:32.011Z,97413.34
2022-12-11T07:54:02.319Z,97417.84
2022-12-11T07:56:34.582Z,97423.78
2022-12-11T07:59:05.519Z,97417.28
2022-12-11T08:01:36.773Z,97421.81
2022-12-11T08:04:06.034Z,97431.75
2022-12-11T08:06:35.758Z,97435.41
2022-12-11T08:09:06.414Z,97430.50
2022-12-11T08:11:38.380Z,97425.66
2022-12-11T08:14:09.307Z,97414.06
2022-12-11T08:16:40.401Z,97416.75
2022-12-11T08:19:11.519Z,97416.16
2022-12-11T08:21:40.535Z,97418.59
2022-12-11T08:24:10.187Z,97420.84
2022-12-11T08:26:40.068Z,97424.13
2022-12-11T08:29:10.590Z,97421.66
2022-12-11T08:31:39.037Z,97415.94
2022-12-11T08:34:07.644Z,97417.38
2022-12-11T08:36:35.751Z,97412.69
2022-12-11T08:39:03.675Z,97423.47
2022-12-11T08:41:32.661Z,97419.84
2022-12-11T08:44:02.470Z,97414.19
2022-12-11T08:46:33.473Z,97414.16
2022-12-11T08:49:01.599Z,97404.00
2022-12-11T08:51:31.019Z,97423.16
2022-12-11T08:54:01.405Z,97417.88
2022-12-11T08:56:31.308Z,97417.22
2022-12-11T08:59:04.563Z,97420.69
2022-12-11T09:01:34.699Z,97419.69
2022-12-11T09:04:03.409Z,97419.06
2022-12-11T09:06:34.500Z,97425.59
2022-12-11T09:09:03.856Z,97423.13
2022-12-11T09:11:35.566Z,97411.13
2022-12-11T09:18:37.797Z,97415.44
2022-12-11T09:21:09.283Z,97413.56
2022-12-11T09:23:48.608Z,97410.50
2022-12-11T09:26:20.305Z,97411.72
2022-12-11T09:28:57.381Z,97408.50
2022-12-11T09:31:28.232Z,97409.50
2022-12-11T09:33:58.966Z,97417.22
2022-12-11T09:36:28.766Z,97410.34
2022-12-11T09:38:57.237Z,97412.59
2022-12-11T09:41:36.633Z,97414.44
2022-12-11T09:44:30.308Z,97413.84
2022-12-11T09:46:58.745Z,97400.00
2022-12-11T09:49:34.616Z,97408.53
2022-12-11T09:52:13.814Z,97403.88
2022-12-11T09:54:49.899Z,97389.81
2022-12-11T09:57:31.078Z,97399.59
2022-12-11T10:00:10.023Z,97383.50
2022-12-11T10:02:51.831Z,97393.72
2022-12-11T10:05:28.447Z,97392.69
2022-12-11T10:08:03.022Z,97396.97
2022-12-11T10:10:42.913Z,97395.72
2022-12-11T10:13:22.591Z,97387.75
2022-12-11T10:15:56.334Z,97412.59
2022-12-11T10:21:24.440Z,97391.41
2022-12-11T10:23:59.893Z,97390.63
2022-12-11T10:26:31.340Z,97387.56
2022-12-11T10:29:01.662Z,97383.69
2022-12-11T10:31:36.933Z,97383.09
2022-12-11T10:34:10.075Z,97378.00
2022-12-11T10:36:40.312Z,97370.25
2022-12-11T10:39:16.122Z,97375.13
2022-12-11T10:41:46.817Z,97373.50
2022-12-11T10:44:20.002Z,97362.69
2022-12-11T10:46:49.380Z,97363.53
2022-12-11T10:49:25.939Z,97361.69
2022-12-11T10:51:55.924Z,97364.34
2022-12-11T10:54:33.554Z,97359.69
2022-12-11T10:57:03.980Z,97353.78
2022-12-11T10:59:37.281Z,97356.66
2022-12-11T11:02:07.039Z,97359.50
2022-12-11T11:04:38.061Z,97356.84
2022-12-11T11:07:14.090Z,97348.72
2022-12-11T11:09:43.654Z,97343.63
2022-12-11T11:12:21.715Z,97340.56
2022-12-11T11:15:00.552Z,97341.38
2022-12-11T11:17:33.796Z,97334.69
2022-12-11T11:20:13.151Z,97336.31
2022-12-11T11:22:45.997Z,97333.03
2022-12-11T11:25:21.142Z,97340.34
2022-12-11T11:27:56.065Z,97333.00
2022-12-11T11:30:25.881Z,97327.91
2022-12-11T11:32:56.892Z,97326.06
2022-12-11T11:35:26.963Z,97327.31
2022-12-11T11:38:01.866Z,97320.38
2022-12-11T11:40:35.438Z,97323.03
2022-12-11T11:43:15.626Z,97323.84
2022-12-11T11:45:47.950Z,97322.63
2022-12-11T11:48:30.207Z,97325.06
2022-12-11T11:50:59.200Z,97323.63
2022-12-11T11:53:33.398Z,97318.13
2022-12-11T11:56:15.684Z,97310.41
2022-12-11T11:58:50.175Z,97314.66
2022-12-11T12:01:21.607Z,97313.09
2022-12-11T12:03:52.029Z,97305.91
2022-12-11T12:06:38.457Z,97306.13
2022-12-11T12:09:25.139Z,97306.72
2022-12-11T12:12:00.140Z,97302.66
2022-12-11T12:14:51.989Z,97312.84
2022-12-11T12:17:27.871Z,97307.38
2022-12-11T12:20:04.695Z,97305.75
2022-12-11T12:22:49.652Z,97305.75
2022-12-11T12:25:23.890Z,97307.78
2022-12-11T12:28:01.287Z,97312.06
2022-12-11T12:30:38.783Z,97310.03
2022-12-11T12:33:20.904Z,97314.31
2022-12-11T12:36:00.886Z,97306.56
2022-12-11T12:38:41.902Z,97303.94
2022-12-11T12:41:20.025Z,97295.16
2022-12-11T12:44:13.409Z,97295.56
2022-12-11T12:46:52.201Z,97292.13
2022-12-11T12:49:31.544Z,97294.16
2022-12-11T12:52:01.698Z,97295.38
2022-12-11T12:54:31.384Z,97279.69
2022-12-11T12:57:00.802Z,97290.28
2022-12-11T12:59:30.628Z,97290.09
2022-12-11T13:02:01.488Z,97292.53
2022-12-11T13:07:30.242Z,97285.41
2022-12-11T13:10:01.901Z,97290.09
2022-12-11T13:12:35.369Z,97291.72
2022-12-11T13:15:05.466Z,97298.03
2022-12-11T13:17:39.181Z,97290.88
2022-12-11T13:20:18.245Z,97304.31
2022-12-11T13:22:52.963Z,97289.47
2022-12-11T13:25:30.321Z,97299.25
2022-12-11T13:28:08.887Z,97294.56
2022-12-11T13:30:38.914Z,97289.66
2022-12-11T13:33:08.814Z,97293.53
2022-12-11T13:35:37.099Z,97299.84
2022-12-11T13:38:09.563Z,97293.53
2022-12-11T13:40:42.679Z,97288.44
2022-12-11T13:43:20.087Z,97296.19
2022-12-11T13:45:52.161Z,97292.53
2022-12-11T13:48:24.784Z,97295.59
2022-12-11T13:50:53.712Z,97304.53
2022-12-11T13:53:23.105Z,97306.78
2022-12-11T13:55:58.993Z,97296.19
2022-12-11T13:58:27.498Z,97299.44
2022-12-11T14:01:07.679Z,97292.94
2022-12-11T14:03:37.057Z,97298.63
2022-12-11T14:06:05.438Z,97292.13
2022-12-11T14:08:37.704Z,97305.75
2022-12-11T14:11:06.730Z,97300.25
2022-12-11T14:13:36.574Z,97305.97
2022-12-11T14:16:08.737Z,97299.66
2022-12-11T14:18:37.882Z,97302.28
2022-12-11T14:21:07.501Z,97300.47
2022-12-11T14:23:37.664Z,97304.75
2022-12-11T14:26:19.041Z,97308.19
2022-12-11T14:28:47.522Z,97305.75
2022-12-11T14:31:23.195Z,97305.34
2022-12-11T14:33:55.972Z,97304.75
2022-12-11T14:36:24.925Z,97307.78
2022-12-11T14:38:57.266Z,97317.75
2022-12-11T14:41:31.044Z,97316.13
2022-12-11T14:44:02.150Z,97320.59
2022-12-11T14:46:38.504Z,97323.84
2022-12-11T14:49:18.908Z,97318.53
2022-12-11T14:51:48.063Z,97329.94
2022-12-11T14:54:28.288Z,97331.78
2022-12-11T14:56:56.936Z,97333.41
2022-12-11T14:59:31.741Z,97328.50
2022-12-11T15:02:05.051Z,97335.84
2022-12-11T15:04:34.542Z,97333.19
2022-12-11T15:07:02.435Z,97336.47
2022-12-11T15:09:38.739Z,97331.56
2022-12-11T15:12:12.456Z,97335.44
2022-12-11T15:14:48.491Z,97338.06
2022-12-11T15:17:18.874Z,97340.09
2022-12-11T15:19:51.557Z,97343.13
2022-12-11T15:22:23.831Z,97340.88
2022-12-11T15:24:54.475Z,97339.88
2022-12-11T15:27:27.445Z,97334.16
2022-12-11T15:29:55.676Z,97344.75
2022-12-11T15:32:25.458Z,97345.53
2022-12-11T15:34:55.382Z,97344.94
2022-12-11T15:37:25.531Z,97341.25
2022-12-11T15:39:54.578Z,97342.88
2022-12-11T15:42:27.548Z,97351.44
2022-12-11T15:44:56.556Z,97347.59
2022-12-11T15:47:28.612Z,97352.03
2022-12-11T15:49:59.303Z,97357.94
2022-12-11T15:52:27.240Z,97350.81
2022-12-11T15:54:55.740Z,97352.69
2022-12-11T15:57:25.719Z,97352.66
2022-12-11T15:59:56.268Z,97363.03
2022-12-11T16:02:26.761Z,97348.81
2022-12-11T16:04:55.346Z,97356.13
2022-12-11T16:07:25.272Z,97361.63
2022-12-11T16:09:53.651Z,97354.31
2022-12-11T16:12:21.757Z,97377.88
2022-12-11T16:14:50.217Z,97364.44
2022-12-11T16:17:18.152Z,97371.59
2022-12-11T16:19:47.632Z,97359.56
2022-12-11T16:22:16.434Z,97364.22
2022-12-11T16:24:44.512Z,97356.72
2022-12-11T16:27:12.588Z,97350.78
2022-12-11T16:29:43.042Z,97361.38
2022-12-11T16:32:11.594Z,97361.56
2022-12-11T16:34:39.713Z,97360.78
2022-12-11T16:37:10.777Z,97375.59
2022-12-11T16:39:39.904Z,97360.16
2022-12-11T16:42:08.224Z,97358.75
2022-12-11T16:44:41.029Z,97357.13
2022-12-11T16:47:11.779Z,97360.81
2022-12-11T16:49:41.276Z,97362.78
2022-12-11T16:52:10.793Z,97361.56
2022-12-11T16:54:38.853Z,97356.09
2022-12-11T16:57:07.411Z,97356.91
2022-12-11T16:59:37.734Z,97359.72
2022-12-11T17:02:06.534Z,97357.88
2022-12-11T17:04:35.022Z,97354.84
2022-12-11T17:07:04.023Z,97349.78
2022-12-11T17:09:33.457Z,97353.81
2022-12-11T17:12:01.601Z,97352.63
2022-12-11T17:14:29.766Z,97352.03
2022-12-11T17:16:58.707Z,97350.81
2022-12-11T17:19:27.107Z,97356.09
2022-12-11T17:21:56.186Z,97356.72
2022-12-11T17:24:24.231Z,97351.44
2022-12-11T17:26:56.125Z,97348.19
2022-12-11T17:29:24.371Z,97346.38
2022-12-11T17:31:52.878Z,97356.16
2022-12-11T17:34:20.945Z,97351.66
2022-12-11T17:36:49.250Z,97349.59
2022-12-11T17:39:18.908Z,97346.53
2022-12-11T17:41:47.106Z,97352.06
2022-12-11T17:44:16.643Z,97354.47
2022-12-11T17:46:44.587Z,97350.59
2022-12-11T17:49:13.193Z,97347.75
2022-12-11T17:51:41.195Z,97347.34
2022-12-11T17:54:09.237Z,97345.34
2022-12-11T17:56:37.453Z,97349.00
2022-12-11T17:59:05.948Z,97344.75
2022-12-11T18:01:35.423Z,97344.50
2022-12-11T18:04:03.722Z,97344.72
2022-12-11T18:06:32.388Z,97345.34
2022-12-11T18:09:01.847Z,97337.59
2022-12-11T18:11:29.788Z,97344.72
2022-12-11T18:13:59.305Z,97345.34
2022-12-11T18:16:29.759Z,97346.75
2022-12-11T18:18:59.296Z,97338.78
2022-12-11T18:21:30.678Z,97344.06
2022-12-11T18:23:59.089Z,97351.00
2022-12-11T18:26:28.014Z,97357.72
2022-12-11T18:28:55.969Z,97358.31
2022-12-11T18:31:25.232Z,97354.66
2022-12-11T18:33:53.808Z,97352.88
2022-12-11T18:36:23.634Z,97353.06
2022-12-11T18:38:52.093Z,97339.44
2022-12-11T18:41:20.758Z,97341.91
2022-12-11T18:43:49.182Z,97342.91
2022-12-11T18:46:19.126Z,97346.34
2022-12-11T18:48:47.515Z,97343.69
2022-12-11T18:51:18.595Z,97339.00
2022-12-11T18:53:47.915Z,97345.09
2022-12-11T18:56:19.196Z,97354.06
2022-12-11T18:58:48.110Z,97347.13
2022-12-11T19:01:20.321Z,97347.13
2022-12-11T19:03:49.061Z,97354.47
2022-12-11T19:06:20.304Z,97353.66
2022-12-11T19:08:49.732Z,97344.09
2022-12-11T19:11:19.196Z,97351.00
2022-12-11T19:13:48.183Z,97343.91
2022-12-11T19:16:17.896Z,97346.53
2022-12-11T19:18:46.774Z,97348.16
2022-12-11T19:21:16.081Z,97343.47
2022-12-11T19:23:45.612Z,97345.72
2022-12-11T19:26:19.580Z,97342.66
2022-12-11T19:28:48.027Z,97336.97
2022-12-11T19:31:18.246Z,97332.88
2022-12-11T19:33:47.469Z,97341.81
2022-12-11T19:36:21.753Z,97345.47
2022-12-11T19:38:50.814Z,97344.03
2022-12-11T19:41:22.029Z,97340.97
2022-12-11T19:43:51.035Z,97348.28
2022-12-11T19:46:20.225Z,97350.31
2022-12-11T19:48:50.108Z,97345.00
2022-12-11T19:51:20.229Z,97348.41
2022-12-11T19:53:51.285Z,97349.63
2022-12-11T19:56:22.203Z,97354.91
2022-12-11T19:58:51.018Z,97355.34
2022-12-11T20:01:25.284Z,97354.72
2022-12-11T20:03:53.951Z,97352.06
2022-12-11T20:06:22.376Z,97345.59
2022-12-11T20:08:50.996Z,97353.13
2022-12-11T20:11:20.865Z,97354.94
2022-12-11T20:13:49.904Z,97352.69
2022-12-11T20:16:28.891Z,97357.59
2022-12-11T20:19:08.402Z,97348.03
2022-12-11T20:21:37.432Z,97347.63
2022-12-11T20:24:06.021Z,97345.81
2022-12-11T20:26:36.960Z,97358.41
2022-12-11T20:29:08.064Z,97358.59
2022-12-11T20:31:37.159Z,97355.13
2022-12-11T20:34:05.703Z,97359.81
2022-12-11T20:36:34.533Z,97367.31
2022-12-11T20:39:02.609Z,97362.84
2022-12-11T20:41:30.775Z,97357.34
2022-12-11T20:44:00.475Z,97368.94
2022-12-11T20:46:28.949Z,97357.94
2022-12-11T20:48:58.823Z,97358.75
2022-12-11T20:51:27.694Z,97358.94
2022-12-11T20:53:59.356Z,97362.41
2022-12-11T20:56:29.928Z,97359.56
2022-12-11T20:59:00.986Z,97362.81
2022-12-11T21:01:31.635Z,97366.06
2022-12-11T21:04:00.733Z,97364.22
2022-12-11T21:06:31.857Z,97363.22
2022-12-11T21:09:01.229Z,97359.38
2022-12-11T21:11:30.276Z,97362.22
2022-12-11T21:13:59.569Z,97355.72
2022-12-11T21:16:29.367Z,97364.28
2022-12-11T21:18:57.668Z,97368.34
2022-12-11T21:21:26.098Z,97365.72
2022-12-11T21:23:54.528Z,97367.16
2022-12-11T21:26:22.406Z,97365.31
2022-12-11T21:28:50.254Z,97363.50
2022-12-11T21:31:20.959Z,97357.81
2022-12-11T21:33:53.030Z,97360.25
2022-12-11T21:36:21.442Z,97365.34
2022-12-11T21:38:49.397Z,97357.41
2022-12-11T21:41:19.511Z,97366.16
2022-12-11T21:46:39.929Z,97366.16
2022-12-11T21:49:08.846Z,97366.38
2022-12-11T21:51:42.667Z,97362.09
2022-12-11T21:54:18.547Z,97362.72
2022-12-11T21:56:47.437Z,97364.31
2022-12-11T21:59:15.995Z,97371.41
2022-12-11T22:01:47.391Z,97371.63
2022-12-11T22:04:16.706Z,97369.59
2022-12-11T22:06:47.477Z,97379.78
2022-12-11T22:09:17.856Z,97372.03
2022-12-11T22:11:47.877Z,97379.78
2022-12-11T22:14:18.254Z,97383.84
2022-12-11T22:16:48.127Z,97383.66
2022-12-11T22:19:16.087Z,97390.19
2022-12-11T22:21:44.132Z,97383.03
2022-12-11T22:24:12.092Z,97383.84
2022-12-11T22:26:40.726Z,97383.03
2022-12-11T22:29:08.670Z,97391.59
2022-12-11T22:31:37.068Z,97381.00
2022-12-11T22:34:06.330Z,97383.84
2022-12-11T22:36:34.246Z,97380.81
2022-12-11T22:39:03.182Z,97383.47
2022-12-11T22:41:33.673Z,97394.06
2022-12-11T22:44:04.098Z,97384.28
2022-12-11T22:46:32.101Z,97383.25
2022-12-11T22:49:00.587Z,97393.06
2022-12-11T22:51:29.971Z,97388.16
2022-12-11T22:53:59.772Z,97386.53
2022-12-11T22:56:28.094Z,97386.53
2022-12-11T22:58:57.341Z,97391.00
2022-12-11T23:01:28.670Z,97385.72
2022-12-11T23:03:56.564Z,97384.69
2022-12-11T23:06:27.340Z,97393.84
2022-12-11T23:08:58.926Z,97389.38
2022-12-11T23:11:29.210Z,97395.47
2022-12-11T23:13:57.874Z,97391.81
2022-12-11T23:16:26.989Z,97385.28
2022-12-11T23:18:55.171Z,97387.94
2022-12-11T23:21:24.214Z,97384.28
2022-12-11T23:23:52.490Z,97391.19
2022-12-11T23:26:23.874Z,97389.38
2022-12-11T23:28:52.826Z,97388.97
2022-12-11T23:31:20.917Z,97383.69
2022-12-11T23:33:49.198Z,97390.41
2022-12-11T23:36:17.538Z,97390.41
2022-12-11T23:38:50.967Z,97392.03
2022-12-11T23:41:24.254Z,97392.22
2022-12-11T23:43:52.803Z,97391.41
2022-12-11T23:46:25.470Z,97400.16
2022-12-11T23:48:54.329Z,97391.81
2022-12-11T23:51:24.774Z,97394.44
2022-12-11T23:53:53.639Z,97393.63
2022-12-11T23:56:25.481Z,97392.63
2022-12-11T23:58:54.377Z,97389.97
